Terminal Aerodrome Forecast
Issued by NWS Duluth, MN

Home | Current Version | Previous Version | Text Only | Print | Product List | Glossary On
Versions: 1 2 3 4 5 6 7 8 9 10 11 12 13 14 15 16 17 18 19 20 21 22 23 24 25 26 27 28 29 30
000
FTUS43 KDLH 280913 AAD
TAFDLH
TAF AMD
KDLH 280913Z 2809/2906 20004KT P6SM SCT021
      TEMPO 2810/2812 OVC022
     FM281400 21006KT P6SM BKN040
     FM281800 22010G17KT P6SM SCT030=

USA.gov is the U.S. government's official web portal to all federal, state and local government web resources and services.